»·PEaware :: QFA3114 KLAX-YSSY

QFA3114 :: KLAX-YSSY

FLIGHT INFORMATION

Flight Status: Arrived
Operator:
Qantas Airways
More flights by this operator :: More flights under this callsign
Pilot: Kim E. (65)
Aircraft: BOEING 747-400 (WINGLETS)
(B744)
More flights by this aircraft type
Origin: KLAX Los Angeles Intl
United States
Destination: YSSY Kingsford Smith Intl
Australia
More flights between these airports :: More routes between these airports
Route: +VTU5 DINTY MARLN8
File this flight plan on PilotEdge
Remarks: / V /
Altitude:
(Current/Filed)
40,000ft
Speed:
(Current/Filed)
400kts
Departed: 07-Jul-12 07:58 AM
Arrived: 07-Jul-12 10:12 PM
Distance/Time
Traveled:
6508nm/14:14
Distance/Time
To Go:
Arrived

Flight Plot

Page will automatically refresh every two minutes.

Flight plan parsing failed; only flown route is shown


Map Options




Map Legend


Flown Route
Filed Route
Departure Airport
Arrival Airport
Navaid (VOR, NDB)
Fix

Horizontal Profiles

Position Reports

Time Latitude Longitude Heading Altitude Ground
Speed
07-Jul-12 06:40 33.940560 -118.408966 265 138ft 0kts
07-Jul-12 06:41 33.940560 -118.408966 265 138ft 0kts
07-Jul-12 06:42 33.940560 -118.408966 265 138ft 0kts
07-Jul-12 06:43 33.940560 -118.408966 265 138ft 0kts
07-Jul-12 06:44 33.940560 -118.408966 265 138ft 0kts
07-Jul-12 06:45 33.940560 -118.408966 265 138ft 0kts
07-Jul-12 06:46 33.940560 -118.408966 265 138ft 0kts
07-Jul-12 06:47 33.940560 -118.408966 265 138ft 0kts
07-Jul-12 06:48 33.940560 -118.408966 265 138ft 0kts
07-Jul-12 06:49 33.940560 -118.408966 265 138ft 0kts
07-Jul-12 06:50 33.940560 -118.408966 265 138ft 0kts
07-Jul-12 06:51 33.940531 -118.409440 265 138ft 6kts
07-Jul-12 06:52 33.940566 -118.408872 265 138ft 0kts
07-Jul-12 06:53 33.940566 -118.408872 265 138ft 0kts
07-Jul-12 06:54 33.940566 -118.408872 265 138ft 0kts
07-Jul-12 06:55 33.940566 -118.408872 265 138ft 0kts
07-Jul-12 06:56 33.940566 -118.408872 265 138ft 0kts
07-Jul-12 06:57 33.940566 -118.408872 265 138ft 0kts
07-Jul-12 06:58 33.940566 -118.408872 265 138ft 0kts
07-Jul-12 06:59 33.940566 -118.408872 265 138ft 0kts
07-Jul-12 07:01 33.940566 -118.408872 265 138ft 0kts
07-Jul-12 07:02 33.940566 -118.408872 265 138ft 0kts
07-Jul-12 07:03 33.940566 -118.408872 265 138ft 0kts
07-Jul-12 07:04 33.940566 -118.408872 265 138ft 0kts
07-Jul-12 07:05 33.940566 -118.408872 265 138ft 0kts
07-Jul-12 07:06 33.940566 -118.408872 265 138ft 0kts
07-Jul-12 07:07 33.940566 -118.408872 265 138ft 0kts
07-Jul-12 07:08 33.940566 -118.408872 265 138ft 0kts
07-Jul-12 07:09 33.940566 -118.408872 265 138ft 0kts
07-Jul-12 07:10 33.940566 -118.408872 265 138ft 0kts
07-Jul-12 07:11 33.940566 -118.408872 265 138ft 0kts
07-Jul-12 07:12 33.940566 -118.408872 265 138ft 0kts
07-Jul-12 07:13 33.940566 -118.408872 265 138ft 0kts
07-Jul-12 07:14 33.940566 -118.408872 265 138ft 0kts
07-Jul-12 07:15 33.940566 -118.408872 265 138ft 0kts
07-Jul-12 07:16 33.940566 -118.408872 265 138ft 0kts
07-Jul-12 07:17 33.940566 -118.408872 265 138ft 0kts
07-Jul-12 07:18 33.940566 -118.408872 265 138ft 0kts
07-Jul-12 07:19 33.940566 -118.408872 265 138ft 0kts
07-Jul-12 07:20 33.940566 -118.408872 265 138ft 0kts
07-Jul-12 07:21 33.940566 -118.408872 265 138ft 0kts
07-Jul-12 07:22 33.940566 -118.408872 265 138ft 0kts
07-Jul-12 07:23 33.940566 -118.408872 265 138ft 0kts
07-Jul-12 07:24 33.940566 -118.408872 265 138ft 0kts
07-Jul-12 07:25 33.940566 -118.408872 265 138ft 0kts
07-Jul-12 07:26 33.940566 -118.408873 265 137ft 0kts
07-Jul-12 07:27 33.940566 -118.408873 266 137ft 0kts
07-Jul-12 07:28 33.940566 -118.408874 266 137ft 0kts
07-Jul-12 07:29 33.940566 -118.408875 266 137ft 0kts
07-Jul-12 07:30 33.940565 -118.408876 266 137ft 0kts
07-Jul-12 07:31 33.940565 -118.408876 266 137ft 0kts
07-Jul-12 07:32 33.940565 -118.408876 266 137ft 0kts
07-Jul-12 07:33 33.940565 -118.408876 266 137ft 0kts
07-Jul-12 07:34 33.940565 -118.408877 266 137ft 0kts
07-Jul-12 07:35 33.940706 -118.408146 218 137ft 2kts
07-Jul-12 07:36 33.940964 -118.408039 176 137ft 0kts
07-Jul-12 07:37 33.940964 -118.408039 176 137ft 0kts
07-Jul-12 07:38 33.940963 -118.408039 176 137ft 0kts
07-Jul-12 07:41 33.940962 -118.408038 176 137ft 0kts
07-Jul-12 07:42 33.940961 -118.408038 176 137ft 0kts
07-Jul-12 07:43 33.940960 -118.408038 176 137ft 0kts
07-Jul-12 07:44 33.940403 -118.408003 176 137ft 7kts
07-Jul-12 07:45 33.939368 -118.407903 172 137ft 2kts
07-Jul-12 07:46 33.938111 -118.407608 103 137ft 4kts
07-Jul-12 07:47 33.938393 -118.404208 83 137ft 14kts
07-Jul-12 07:48 33.938980 -118.398515 82 137ft 15kts
07-Jul-12 07:49 33.939428 -118.394208 83 137ft 13kts
07-Jul-12 07:50 33.939823 -118.389823 83 137ft 12kts
07-Jul-12 07:51 33.940314 -118.384958 82 137ft 14kts
07-Jul-12 07:52 33.940603 -118.382354 81 137ft 0kts
07-Jul-12 07:53 33.940663 -118.381828 82 137ft 8kts
07-Jul-12 07:54 33.940593 -118.380705 103 137ft 3kts
07-Jul-12 07:55 33.939744 -118.381069 268 137ft 8kts
07-Jul-12 07:56 33.937332 -118.405909 262 138ft 179kts
07-Jul-12 07:57 33.930306 -118.474494 262 1903ft 219kts
07-Jul-12 07:58 33.920701 -118.556189 262 3299ft 274kts
07-Jul-12 07:59 33.910583 -118.654531 261 5047ft 307kts
07-Jul-12 08:00 33.900528 -118.758645 262 7752ft 318kts
07-Jul-12 08:01 33.906344 -118.865104 302 10096ft 335kts
07-Jul-12 08:02 33.992011 -118.926233 336 11093ft 400kts
07-Jul-12 08:03 34.092758 -118.997133 320 13557ft 425kts
07-Jul-12 08:04 34.147060 -119.123338 284 15943ft 436kts
07-Jul-12 08:05 34.181504 -119.266756 284 18141ft 450kts
07-Jul-12 08:06 34.217501 -119.413681 284 20169ft 459kts
07-Jul-12 08:07 34.254438 -119.563384 283 22028ft 467kts
07-Jul-12 08:08 34.290473 -119.714050 283 23653ft 475kts
07-Jul-12 08:09 34.325554 -119.864144 282 25058ft 483kts
07-Jul-12 08:10 34.361376 -120.023139 281 26315ft 491kts
07-Jul-12 08:11 34.374433 -120.185181 254 27388ft 486kts
07-Jul-12 08:12 34.324892 -120.337565 243 28421ft 488kts
07-Jul-12 08:13 34.270637 -120.487785 244 29832ft 483kts
07-Jul-12 08:14 34.217548 -120.636686 244 31078ft 479kts
07-Jul-12 08:15 34.164266 -120.783863 243 32081ft 476kts
07-Jul-12 08:16 34.111425 -120.929797 244 32942ft 473kts
07-Jul-12 08:17 34.067460 -121.050831 243 33571ft 471kts
07-Jul-12 08:18 34.005276 -121.219906 243 34072ft 470kts
07-Jul-12 08:19 33.961287 -121.340336 243 34074ft 469kts
07-Jul-12 08:20 33.907743 -121.484739 243 34075ft 469kts
07-Jul-12 08:21 33.854225 -121.627941 243 34075ft 469kts
07-Jul-12 08:22 33.800751 -121.771665 243 34075ft 469kts
07-Jul-12 08:23 33.746384 -121.915295 243 34074ft 469kts
07-Jul-12 08:24 33.692244 -122.058240 243 34059ft 468kts
07-Jul-12 08:25 33.666606 -122.125055 242 34057ft 468kts
07-Jul-12 08:26 33.625065 -122.232002 242 34046ft 455kts
07-Jul-12 08:27 33.571116 -122.368861 242 34044ft 449kts
07-Jul-12 08:28 33.516903 -122.503008 242 34045ft 442kts
07-Jul-12 08:29 33.469576 -122.637984 241 34050ft 433kts
07-Jul-12 08:30 33.410211 -122.761928 236 34051ft 424kts
07-Jul-12 08:31 33.349209 -122.880978 236 34052ft 416kts
07-Jul-12 08:32 33.288864 -122.998857 236 34055ft 407kts
07-Jul-12 08:33 33.230322 -123.112537 236 34056ft 398kts
07-Jul-12 08:34 33.172586 -123.223806 236 34057ft 386kts
07-Jul-12 08:35 33.115159 -123.334965 236 33214ft 407kts
07-Jul-12 08:36 33.052743 -123.454989 236 32086ft 440kts
07-Jul-12 08:37 32.987028 -123.580412 236 32063ft 452kts
07-Jul-12 08:38 32.919203 -123.710499 236 32067ft 465kts
07-Jul-12 08:39 32.850031 -123.841876 236 32063ft 468kts
07-Jul-12 08:40 32.780451 -123.973474 236 32064ft 469kts
07-Jul-12 08:41 32.710882 -124.105483 235 32063ft 468kts
07-Jul-12 08:42 32.641266 -124.236090 235 32062ft 468kts
07-Jul-12 08:43 32.571357 -124.367690 235 32061ft 468kts
07-Jul-12 08:44 32.501541 -124.498062 235 32061ft 468kts
07-Jul-12 08:45 32.431104 -124.628787 235 32060ft 468kts
07-Jul-12 08:46 32.360923 -124.759779 235 32061ft 468kts
07-Jul-12 08:47 32.290605 -124.889461 235 32060ft 468kts
07-Jul-12 08:48 32.220002 -125.019946 235 32061ft 468kts
07-Jul-12 08:49 32.149647 -125.149181 235 32062ft 468kts
07-Jul-12 08:50 32.078407 -125.279122 235 32063ft 468kts
07-Jul-12 08:51 32.007563 -125.409065 235 32064ft 468kts
07-Jul-12 08:52 31.936643 -125.537683 235 32067ft 468kts
07-Jul-12 08:53 31.865815 -125.666218 235 32068ft 468kts
07-Jul-12 08:54 31.794017 -125.796011 235 32069ft 468kts
07-Jul-12 08:55 31.723017 -125.923363 235 32069ft 468kts
07-Jul-12 08:57 31.591678 -126.159069 234 32070ft 468kts
07-Jul-12 08:58 31.519742 -126.286989 235 32070ft 468kts
07-Jul-12 08:59 31.448183 -126.414756 234 32070ft 468kts
07-Jul-12 09:00 31.375752 -126.542674 234 32070ft 468kts
07-Jul-12 09:01 31.303812 -126.670068 234 32070ft 468kts
07-Jul-12 09:02 31.231570 -126.797120 234 32070ft 468kts
07-Jul-12 09:03 31.159027 -126.923920 234 32070ft 468kts
07-Jul-12 09:04 31.087015 -127.050483 234 32070ft 468kts
07-Jul-12 09:05 31.013838 -127.177667 234 32070ft 468kts
07-Jul-12 09:06 30.941472 -127.303616 234 32070ft 468kts
07-Jul-12 09:07 30.868623 -127.429794 234 32070ft 468kts
07-Jul-12 09:08 30.795555 -127.555482 234 32070ft 468kts
07-Jul-12 09:09 30.722732 -127.681372 234 32070ft 468kts
07-Jul-12 09:10 30.649466 -127.806742 234 32070ft 468kts
07-Jul-12 09:11 30.576183 -127.932101 234 32070ft 468kts
07-Jul-12 09:12 30.502819 -128.057323 234 32070ft 468kts
07-Jul-12 09:13 30.428927 -128.182463 234 32070ft 468kts
07-Jul-12 09:14 30.355595 -128.307167 234 32070ft 468kts
07-Jul-12 09:15 30.281970 -128.431259 233 32070ft 468kts
07-Jul-12 09:16 30.207600 -128.556383 234 32066ft 468kts
07-Jul-12 09:17 30.134055 -128.680078 233 32067ft 467kts
07-Jul-12 09:18 30.059876 -128.803801 233 32067ft 467kts
07-Jul-12 09:19 29.985778 -128.927788 233 32067ft 467kts
07-Jul-12 09:20 29.911446 -129.051230 233 32068ft 467kts
07-Jul-12 09:21 29.836945 -129.174397 233 32067ft 467kts
07-Jul-12 09:22 29.762589 -129.297803 233 32067ft 467kts
07-Jul-12 09:23 29.688090 -129.420226 233 32068ft 467kts
07-Jul-12 09:24 29.613203 -129.543535 233 32066ft 467kts
07-Jul-12 09:25 29.538384 -129.666007 233 32065ft 466kts
07-Jul-12 09:26 29.463544 -129.787839 233 32066ft 467kts
07-Jul-12 09:27 29.388455 -129.910631 233 32065ft 466kts
07-Jul-12 09:28 29.312979 -130.032878 233 32067ft 467kts
07-Jul-12 09:29 29.238346 -130.153820 233 32065ft 466kts
07-Jul-12 09:30 29.163027 -130.275449 233 32066ft 467kts
07-Jul-12 09:31 29.087666 -130.396316 233 32067ft 467kts
07-Jul-12 09:32 29.011895 -130.518372 233 32066ft 466kts
07-Jul-12 09:33 28.936222 -130.639189 233 32065ft 466kts
07-Jul-12 09:34 28.860772 -130.759538 233 32065ft 466kts
07-Jul-12 09:35 28.785125 -130.880096 233 32056ft 467kts
07-Jul-12 09:36 28.721330 -130.980981 232 32062ft 466kts
07-Jul-12 09:37 28.645914 -131.100603 233 32050ft 465kts
07-Jul-12 09:38 28.569780 -131.220696 232 32063ft 467kts
07-Jul-12 09:39 28.493016 -131.341038 233 32049ft 465kts
07-Jul-12 09:40 28.416978 -131.460938 232 32063ft 467kts
07-Jul-12 09:41 28.340534 -131.580157 233 32051ft 465kts
07-Jul-12 09:42 28.263976 -131.699858 232 32052ft 467kts
07-Jul-12 09:43 28.187652 -131.818547 233 32050ft 465kts
07-Jul-12 09:44 28.110628 -131.937736 232 32003ft 468kts
07-Jul-12 09:45 28.034054 -132.056646 232 32003ft 468kts
07-Jul-12 09:46 27.956796 -132.175608 232 31998ft 468kts
07-Jul-12 09:47 27.878980 -132.295377 232 31997ft 468kts
07-Jul-12 09:48 27.801618 -132.414214 232 31997ft 468kts
07-Jul-12 09:49 27.724559 -132.531800 232 31998ft 468kts
07-Jul-12 09:50 27.646830 -132.650811 232 31996ft 468kts
07-Jul-12 09:51 27.568762 -132.769435 232 31995ft 468kts
07-Jul-12 09:52 27.490932 -132.887456 232 31995ft 468kts
07-Jul-12 09:53 27.413146 -133.005471 232 31994ft 468kts
07-Jul-12 09:54 27.335017 -133.123112 232 31994ft 468kts
07-Jul-12 09:55 27.257137 -133.240694 232 31994ft 468kts
07-Jul-12 09:56 27.179159 -133.357659 232 31995ft 468kts
07-Jul-12 09:57 27.100252 -133.475563 232 31994ft 468kts
07-Jul-12 09:58 27.022294 -133.592418 232 31994ft 468kts
07-Jul-12 09:59 26.943459 -133.709584 232 31994ft 468kts
07-Jul-12 10:00 26.864781 -133.826736 232 31994ft 468kts
07-Jul-12 10:01 26.786430 -133.942789 232 31994ft 468kts
07-Jul-12 10:02 26.707235 -134.059525 231 31994ft 468kts
07-Jul-12 10:03 26.628692 -134.175763 231 31994ft 468kts
07-Jul-12 10:04 26.549663 -134.291730 231 31994ft 467kts
07-Jul-12 10:05 26.470902 -134.407397 231 31995ft 467kts
07-Jul-12 10:06 26.391912 -134.522987 231 31995ft 467kts
07-Jul-12 10:07 26.312721 -134.638241 231 31995ft 467kts
07-Jul-12 10:08 26.233227 -134.754350 231 31995ft 467kts
07-Jul-12 10:09 26.154452 -134.868521 231 31995ft 467kts
07-Jul-12 10:10 26.074771 -134.983956 231 31996ft 468kts
07-Jul-12 10:11 25.994473 -135.100075 231 32014ft 468kts
07-Jul-12 10:12 25.915036 -135.214260 231 32015ft 469kts
07-Jul-12 10:13 25.848499 -135.310244 231 32018ft 469kts
07-Jul-12 10:14 25.754845 -135.444421 231 32017ft 469kts
07-Jul-12 10:15 25.687684 -135.540274 231 32018ft 469kts
07-Jul-12 10:16 25.607767 -135.654749 231 32018ft 469kts
07-Jul-12 10:17 25.527291 -135.769097 231 32017ft 469kts
07-Jul-12 10:18 25.446941 -135.883427 231 32017ft 469kts
07-Jul-12 10:19 25.366527 -135.997340 231 32017ft 469kts
07-Jul-12 10:20 25.285259 -136.111922 230 32017ft 469kts
07-Jul-12 10:21 25.204807 -136.225763 231 32018ft 469kts
07-Jul-12 10:22 25.123968 -136.339267 230 32018ft 469kts
07-Jul-12 10:23 25.042976 -136.453045 231 32018ft 469kts
07-Jul-12 10:24 24.961839 -136.566673 230 32018ft 469kts
07-Jul-12 10:25 24.880756 -136.679648 230 32018ft 468kts
07-Jul-12 10:26 24.799931 -136.792628 230 32018ft 469kts
07-Jul-12 10:27 24.719233 -136.904630 230 32018ft 468kts
07-Jul-12 10:28 24.637771 -137.017643 230 32018ft 469kts
07-Jul-12 10:29 24.556565 -137.130116 230 32017ft 468kts
07-Jul-12 10:30 24.474860 -137.242646 230 32018ft 468kts
07-Jul-12 10:31 24.393506 -137.355003 230 32018ft 468kts
07-Jul-12 10:32 24.311910 -137.466976 230 32018ft 468kts
07-Jul-12 10:33 24.230061 -137.579111 230 32019ft 468kts
07-Jul-12 10:34 24.148759 -137.690520 230 32018ft 468kts
07-Jul-12 10:35 24.066653 -137.802331 230 32018ft 468kts
07-Jul-12 10:36 23.984955 -137.913836 230 32017ft 468kts
07-Jul-12 10:37 23.903232 -138.024756 230 32018ft 468kts
07-Jul-12 10:38 23.820901 -138.136158 230 32018ft 468kts
07-Jul-12 10:39 23.738146 -138.248393 230 32019ft 468kts
07-Jul-12 10:40 23.655967 -138.359069 230 32018ft 468kts
07-Jul-12 10:41 23.573606 -138.470178 230 32017ft 468kts
07-Jul-12 10:42 23.491325 -138.580658 230 32018ft 468kts
07-Jul-12 10:43 23.409097 -138.690640 230 32018ft 468kts
07-Jul-12 10:44 23.326773 -138.801107 230 32018ft 468kts
07-Jul-12 10:45 23.243963 -138.911440 229 32017ft 468kts
07-Jul-12 10:46 23.161449 -139.021477 230 32019ft 468kts
07-Jul-12 10:47 23.092283 -139.113444 229 32018ft 468kts
07-Jul-12 10:48 23.009775 -139.222668 229 32019ft 468kts
07-Jul-12 10:49 22.926773 -139.332818 229 32018ft 468kts
07-Jul-12 10:50 22.844207 -139.441757 229 32018ft 468kts
07-Jul-12 10:51 22.761233 -139.551037 230 32019ft 468kts
07-Jul-12 10:52 22.678039 -139.660678 229 32018ft 468kts
07-Jul-12 10:53 22.594699 -139.769814 229 32016ft 468kts
07-Jul-12 10:54 22.511437 -139.879384 227 32012ft 481kts
07-Jul-12 10:55 22.423931 -139.993271 230 32005ft 495kts
07-Jul-12 10:56 22.337442 -140.106102 230 32000ft 485kts
07-Jul-12 10:57 22.250836 -140.219037 229 31997ft 485kts
07-Jul-12 10:58 22.163400 -140.332368 229 31998ft 485kts
07-Jul-12 10:59 22.077292 -140.444203 229 31998ft 485kts
07-Jul-12 11:00 21.990314 -140.556553 229 31998ft 485kts
07-Jul-12 11:01 21.903952 -140.667977 229 31998ft 485kts
07-Jul-12 11:02 21.816542 -140.780665 229 31998ft 485kts
07-Jul-12 11:03 21.730059 -140.891589 229 31998ft 485kts
07-Jul-12 11:04 21.642904 -141.003624 229 31998ft 485kts
07-Jul-12 11:05 21.556182 -141.114471 229 31998ft 485kts
07-Jul-12 11:06 21.468846 -141.226055 229 31998ft 485kts
07-Jul-12 11:07 21.382273 -141.336465 229 31998ft 485kts
07-Jul-12 11:08 21.294690 -141.447657 229 31998ft 485kts
07-Jul-12 11:09 21.207300 -141.558866 229 31998ft 485kts
07-Jul-12 11:10 21.119937 -141.669392 229 31998ft 485kts
07-Jul-12 11:11 21.032801 -141.779645 229 31997ft 485kts
07-Jul-12 11:12 20.945310 -141.890071 229 31997ft 485kts
07-Jul-12 11:13 20.857491 -142.000456 229 31997ft 485kts
07-Jul-12 11:14 20.769977 -142.110729 229 31998ft 485kts
07-Jul-12 11:15 20.682507 -142.220295 229 31998ft 485kts
07-Jul-12 11:16 20.594727 -142.330309 229 31999ft 486kts
07-Jul-12 11:17 20.506822 -142.440141 229 31998ft 484kts
07-Jul-12 11:18 20.418415 -142.550189 229 32052ft 495kts
07-Jul-12 11:19 20.329092 -142.661649 229 32053ft 492kts
07-Jul-12 11:20 20.239227 -142.773118 229 32057ft 493kts
07-Jul-12 11:21 20.149684 -142.884313 229 32056ft 493kts
07-Jul-12 11:22 20.060060 -142.995156 228 32057ft 493kts
07-Jul-12 11:23 19.970083 -143.106184 229 32057ft 493kts
07-Jul-12 11:24 19.880839 -143.216394 228 32056ft 493kts
07-Jul-12 11:25 19.805547 -143.308909 228 32057ft 493kts
07-Jul-12 11:26 19.715767 -143.419371 228 32057ft 493kts
07-Jul-12 11:27 19.625530 -143.529960 228 32057ft 493kts
07-Jul-12 11:28 19.535540 -143.639985 228 32057ft 493kts
07-Jul-12 11:29 19.445701 -143.749939 228 32057ft 493kts
07-Jul-12 11:30 19.355961 -143.859200 228 32057ft 493kts
07-Jul-12 11:31 19.265421 -143.969611 228 32058ft 493kts
07-Jul-12 11:32 19.175074 -144.079276 228 32057ft 493kts
07-Jul-12 11:33 19.084588 -144.189029 228 32057ft 493kts
07-Jul-12 11:34 18.994267 -144.298443 228 32057ft 493kts
07-Jul-12 11:35 18.903839 -144.407541 228 32057ft 493kts
07-Jul-12 11:36 18.813600 -144.516625 228 32056ft 493kts
07-Jul-12 11:37 18.723329 -144.625196 228 32057ft 493kts
07-Jul-12 11:38 18.632503 -144.734459 228 32058ft 493kts
07-Jul-12 11:39 18.542124 -144.842908 228 32057ft 493kts
07-Jul-12 11:40 18.450710 -144.952227 228 32057ft 493kts
07-Jul-12 11:41 18.360468 -145.060377 228 32057ft 492kts
07-Jul-12 11:42 18.269368 -145.168974 228 32058ft 492kts
07-Jul-12 11:43 18.178339 -145.277597 228 32061ft 493kts
07-Jul-12 11:44 18.087327 -145.385804 228 32068ft 494kts
07-Jul-12 11:45 17.995578 -145.494672 228 32089ft 496kts
07-Jul-12 11:46 17.905017 -145.602200 228 32094ft 496kts
07-Jul-12 11:47 17.900730 -145.607272 228 32094ft 496kts
07-Jul-12 11:48 17.846759 -145.671155 229 32090ft 471kts
07-Jul-12 11:49 17.762167 -145.771393 229 32088ft 440kts
07-Jul-12 11:50 17.700466 -145.844344 229 32088ft 414kts
07-Jul-12 11:51 17.631988 -145.925130 229 32087ft 372kts
07-Jul-12 11:52 17.568489 -145.999913 230 32090ft 355kts
07-Jul-12 11:53 17.502017 -146.078157 228 32097ft 362kts
07-Jul-12 11:54 17.433736 -146.158149 227 32101ft 374kts
07-Jul-12 11:55 17.362416 -146.241681 227 32102ft 388kts
07-Jul-12 11:56 17.288646 -146.328335 227 32102ft 404kts
07-Jul-12 11:57 17.212208 -146.417768 227 32101ft 423kts
07-Jul-12 11:58 17.131687 -146.511760 227 32101ft 442kts
07-Jul-12 11:59 17.047442 -146.610313 227 32107ft 463kts
07-Jul-12 12:00 16.958614 -146.713748 227 32106ft 487kts
07-Jul-12 12:01 16.866789 -146.820668 227 32102ft 495kts
07-Jul-12 12:02 16.774227 -146.928251 227 32102ft 495kts
07-Jul-12 12:03 16.681610 -147.035549 227 32102ft 496kts
07-Jul-12 12:04 16.604733 -147.124823 227 32101ft 495kts
07-Jul-12 12:05 16.512426 -147.231515 227 32101ft 495kts
07-Jul-12 12:06 16.420128 -147.338181 227 32101ft 495kts
07-Jul-12 12:07 16.327013 -147.445596 227 32101ft 495kts
07-Jul-12 12:08 16.233870 -147.552708 227 32102ft 495kts
07-Jul-12 12:09 16.140920 -147.659785 227 32101ft 495kts
07-Jul-12 12:10 16.048681 -147.765567 227 32102ft 495kts
07-Jul-12 12:11 15.955654 -147.872330 227 32102ft 495kts
07-Jul-12 12:12 15.863056 -147.978284 227 32102ft 495kts
07-Jul-12 12:13 15.769808 -148.084780 227 32102ft 495kts
07-Jul-12 12:14 15.677130 -148.190707 227 32102ft 495kts
07-Jul-12 12:15 15.583503 -148.297281 227 32101ft 495kts
07-Jul-12 12:16 15.490788 -148.402946 227 32101ft 495kts
07-Jul-12 12:17 15.397515 -148.508863 227 32497ft 496kts
07-Jul-12 12:18 15.304072 -148.614924 227 33458ft 495kts
07-Jul-12 12:19 15.210887 -148.720553 227 34090ft 496kts
07-Jul-12 12:20 15.117897 -148.825665 227 34095ft 495kts
07-Jul-12 12:21 15.024882 -148.930925 227 34094ft 495kts
07-Jul-12 12:22 14.931551 -149.036137 227 34095ft 495kts
07-Jul-12 12:23 14.838331 -149.141270 227 34095ft 494kts
07-Jul-12 12:24 14.744747 -149.246563 227 34094ft 494kts
07-Jul-12 12:25 14.651295 -149.351467 227 34095ft 494kts
07-Jul-12 12:26 14.558329 -149.455969 227 34094ft 495kts
07-Jul-12 12:27 14.464813 -149.560667 227 34095ft 494kts
07-Jul-12 12:28 14.371665 -149.665050 227 34094ft 494kts
07-Jul-12 12:29 14.277487 -149.770262 227 34094ft 494kts
07-Jul-12 12:30 14.184251 -149.874326 227 34095ft 494kts
07-Jul-12 12:31 14.090622 -149.978781 227 34094ft 494kts
07-Jul-12 12:32 13.996647 -150.083294 227 34095ft 494kts
07-Jul-12 12:33 13.903309 -150.187235 227 34094ft 494kts
07-Jul-12 12:34 13.809502 -150.291334 226 34094ft 494kts
07-Jul-12 12:35 13.715424 -150.395733 227 34094ft 494kts
07-Jul-12 12:36 13.621659 -150.499613 226 34094ft 494kts
07-Jul-12 12:37 13.527379 -150.603805 226 34095ft 494kts
07-Jul-12 12:38 13.433833 -150.707336 226 34094ft 494kts
07-Jul-12 12:39 13.340162 -150.810622 226 34095ft 494kts
07-Jul-12 12:40 13.245623 -150.914931 226 34094ft 494kts
07-Jul-12 12:41 13.151882 -151.018097 226 34094ft 494kts
07-Jul-12 12:42 13.057776 -151.121517 226 34094ft 494kts
07-Jul-12 12:43 12.963726 -151.224926 226 34094ft 494kts
07-Jul-12 12:44 12.869577 -151.328109 226 34094ft 494kts
07-Jul-12 12:45 12.790758 -151.414595 226 34094ft 494kts
07-Jul-12 12:46 12.696495 -151.517746 226 34093ft 494kts
07-Jul-12 12:47 12.601952 -151.621062 226 34094ft 494kts
07-Jul-12 12:48 12.507657 -151.724150 226 34093ft 494kts
07-Jul-12 12:49 12.413013 -151.827300 226 34094ft 494kts
07-Jul-12 12:50 12.319000 -151.929861 226 34094ft 494kts
07-Jul-12 12:51 12.224553 -152.032601 226 34093ft 494kts
07-Jul-12 12:52 12.129868 -152.135567 226 34094ft 494kts
07-Jul-12 12:53 12.035451 -152.238134 226 34093ft 494kts
07-Jul-12 12:54 11.941150 -152.340336 226 34093ft 494kts
07-Jul-12 12:55 11.846417 -152.443127 226 34093ft 494kts
07-Jul-12 12:56 11.751532 -152.545764 226 34094ft 494kts
07-Jul-12 12:57 11.657220 -152.647812 226 34093ft 494kts
07-Jul-12 12:58 11.562354 -152.750272 226 34094ft 494kts
07-Jul-12 12:59 11.467558 -152.852475 226 34093ft 494kts
07-Jul-12 13:00 11.372678 -152.954875 226 34091ft 492kts
07-Jul-12 13:01 11.278368 -153.056347 226 34081ft 492kts
07-Jul-12 13:02 11.184904 -153.156982 226 34026ft 483kts
07-Jul-12 13:03 11.092093 -153.256684 226 34001ft 482kts
07-Jul-12 13:04 10.999661 -153.355879 226 33997ft 481kts
07-Jul-12 13:05 10.907259 -153.455070 226 33998ft 481kts
07-Jul-12 13:06 10.814744 -153.554123 226 33997ft 481kts
07-Jul-12 13:07 10.722322 -153.653158 226 33997ft 481kts
07-Jul-12 13:08 10.629704 -153.752171 226 33998ft 481kts
07-Jul-12 13:09 10.537189 -153.851002 226 33997ft 481kts
07-Jul-12 13:10 10.444454 -153.950061 226 33997ft 481kts
07-Jul-12 13:11 10.352268 -154.048301 226 33998ft 481kts
07-Jul-12 13:12 10.259318 -154.147439 226 33998ft 481kts
07-Jul-12 13:13 10.166399 -154.246315 226 33997ft 481kts
07-Jul-12 13:14 10.073975 -154.344614 226 33998ft 481kts
07-Jul-12 13:15 9.981297 -154.443150 226 33997ft 481kts
07-Jul-12 13:16 9.888532 -154.541570 226 33997ft 481kts
07-Jul-12 13:17 9.795748 -154.640093 226 33998ft 481kts
07-Jul-12 13:18 9.702621 -154.738758 226 33997ft 481kts
07-Jul-12 13:19 9.610159 -154.836684 226 33997ft 481kts
07-Jul-12 13:20 9.532468 -154.918940 226 33997ft 481kts
07-Jul-12 13:23 9.253821 -155.213316 226 33997ft 481kts
07-Jul-12 13:24 9.160907 -155.311278 226 33998ft 481kts
07-Jul-12 13:25 9.068589 -155.408657 226 33998ft 481kts
07-Jul-12 13:26 8.974427 -155.507755 225 33997ft 481kts
07-Jul-12 13:27 8.881706 -155.605401 226 33997ft 481kts
07-Jul-12 13:28 8.788335 -155.703548 225 33998ft 481kts
07-Jul-12 13:29 8.695902 -155.800635 226 33997ft 481kts
07-Jul-12 13:30 8.602864 -155.898378 225 33998ft 481kts
07-Jul-12 13:31 8.508871 -155.996921 225 33998ft 481kts
07-Jul-12 13:32 8.416041 -156.094309 225 33997ft 481kts
07-Jul-12 13:33 8.322612 -156.192144 225 33998ft 481kts
07-Jul-12 13:34 8.229211 -156.289900 225 33997ft 481kts
07-Jul-12 13:35 8.136362 -156.387067 225 33998ft 481kts
07-Jul-12 13:36 8.042891 -156.484707 225 33997ft 482kts
07-Jul-12 13:37 7.949223 -156.582622 225 33997ft 487kts
07-Jul-12 13:38 7.854660 -156.681305 225 33998ft 488kts
07-Jul-12 13:39 7.759810 -156.780240 224 33997ft 486kts
07-Jul-12 13:40 7.666109 -156.877919 225 33997ft 480kts
07-Jul-12 13:41 7.573094 -156.974743 225 33997ft 479kts
07-Jul-12 13:42 7.480663 -157.071050 225 33998ft 478kts
07-Jul-12 13:43 7.387717 -157.167708 225 33998ft 479kts
07-Jul-12 13:44 7.294590 -157.264535 225 33997ft 478kts
07-Jul-12 13:45 7.201697 -157.361072 225 33998ft 478kts
07-Jul-12 13:46 7.108734 -157.457554 225 33998ft 478kts
07-Jul-12 13:47 7.014957 -157.554948 225 33998ft 481kts
07-Jul-12 13:48 6.921548 -157.651767 225 33997ft 481kts
07-Jul-12 13:49 6.828419 -157.748297 225 33998ft 480kts
07-Jul-12 13:50 6.735001 -157.845083 225 33998ft 480kts
07-Jul-12 13:51 6.641368 -157.941965 225 33998ft 480kts
07-Jul-12 13:52 6.548370 -158.038247 225 33998ft 480kts
07-Jul-12 13:53 6.454788 -158.134983 225 33997ft 479kts
07-Jul-12 13:54 6.361499 -158.231406 225 33998ft 479kts
07-Jul-12 13:55 6.268321 -158.327666 225 33997ft 479kts
07-Jul-12 13:56 6.175195 -158.423753 225 33998ft 479kts
07-Jul-12 13:57 6.082057 -158.519913 225 33997ft 478kts
07-Jul-12 13:58 6.004401 -158.599975 225 33997ft 478kts
07-Jul-12 13:59 5.911376 -158.695845 225 33997ft 478kts
07-Jul-12 14:00 5.802739 -158.807801 225 33997ft 478kts
07-Jul-12 14:01 5.725392 -158.887409 225 33997ft 478kts
07-Jul-12 14:02 5.632235 -158.983342 225 33998ft 478kts
07-Jul-12 14:03 5.538908 -159.079297 226 33998ft 481kts
07-Jul-12 14:04 5.444617 -159.176272 226 33997ft 480kts
07-Jul-12 14:05 5.351702 -159.271800 226 33998ft 482kts
07-Jul-12 14:06 5.257009 -159.369039 226 33997ft 482kts
07-Jul-12 14:07 5.162743 -159.465880 226 33997ft 483kts
07-Jul-12 14:08 5.068558 -159.562526 226 33998ft 483kts
07-Jul-12 14:09 4.974720 -159.658792 226 33998ft 483kts
07-Jul-12 14:10 4.880072 -159.755873 226 33997ft 484kts
07-Jul-12 14:11 4.785993 -159.852274 226 33998ft 484kts
07-Jul-12 14:12 4.691567 -159.949067 227 33997ft 484kts
07-Jul-12 14:13 4.597302 -160.045591 227 33998ft 485kts
07-Jul-12 14:14 4.502057 -160.143106 227 33997ft 485kts
07-Jul-12 14:15 4.407291 -160.240101 227 33998ft 486kts
07-Jul-12 14:16 4.312170 -160.337375 227 33997ft 485kts
07-Jul-12 14:17 4.217678 -160.434046 227 33998ft 485kts
07-Jul-12 14:18 4.123207 -160.530594 227 33997ft 485kts
07-Jul-12 14:19 4.028415 -160.627468 227 33998ft 485kts
07-Jul-12 14:20 3.933659 -160.724266 227 33998ft 485kts
07-Jul-12 14:21 3.838525 -160.821385 227 33997ft 485kts
07-Jul-12 14:22 3.743760 -160.918166 227 33998ft 485kts
07-Jul-12 14:23 3.649353 -161.014484 227 33997ft 485kts
07-Jul-12 14:24 3.553852 -161.111927 227 33997ft 485kts
07-Jul-12 14:25 3.459136 -161.208523 227 33998ft 485kts
07-Jul-12 14:26 3.364395 -161.305090 227 33997ft 485kts
07-Jul-12 14:27 3.269666 -161.401679 227 33997ft 485kts
07-Jul-12 14:28 3.174588 -161.498538 227 33998ft 485kts
07-Jul-12 14:29 3.079559 -161.595361 227 33997ft 484kts
07-Jul-12 14:30 2.984852 -161.691806 227 33997ft 484kts
07-Jul-12 14:31 2.890136 -161.788220 227 33998ft 484kts
07-Jul-12 14:32 2.795654 -161.884429 227 33997ft 484kts
07-Jul-12 14:33 2.700718 -161.981026 227 33998ft 484kts
07-Jul-12 14:37 2.470124 -162.215600 227 33991ft 473kts
07-Jul-12 14:38 2.377573 -162.309728 227 33991ft 473kts
07-Jul-12 14:39 2.285220 -162.403615 227 33991ft 474kts
07-Jul-12 14:40 2.192406 -162.497945 227 33996ft 475kts
07-Jul-12 14:41 2.099569 -162.592313 227 34021ft 476kts
07-Jul-12 14:42 2.004804 -162.688601 227 34678ft 484kts
07-Jul-12 14:43 1.909980 -162.784936 227 35612ft 485kts
07-Jul-12 14:44 1.814721 -162.881692 227 35987ft 484kts
07-Jul-12 14:45 1.719880 -162.977999 227 35991ft 484kts
07-Jul-12 14:46 1.625048 -163.074315 227 35992ft 484kts
07-Jul-12 14:47 1.529923 -163.170885 227 35994ft 484kts
07-Jul-12 14:48 1.435382 -163.266872 227 35994ft 484kts
07-Jul-12 14:49 1.340641 -163.363034 227 35994ft 484kts
07-Jul-12 14:50 1.245782 -163.459302 227 35994ft 484kts
07-Jul-12 14:51 1.150984 -163.555515 227 35994ft 484kts
07-Jul-12 14:52 1.055873 -163.652017 227 35994ft 484kts
07-Jul-12 14:53 0.961389 -163.747892 227 35994ft 484kts
07-Jul-12 14:54 0.866253 -163.844410 227 35994ft 484kts
07-Jul-12 14:55 0.772164 -163.939860 227 35994ft 484kts
07-Jul-12 14:56 0.677071 -164.036329 227 35994ft 484kts
07-Jul-12 14:57 0.582290 -164.132467 227 35994ft 484kts
07-Jul-12 14:58 0.487160 -164.228965 227 35994ft 484kts
07-Jul-12 14:59 0.392432 -164.325044 227 35994ft 484kts
07-Jul-12 15:00 0.297998 -164.420823 227 35994ft 484kts
07-Jul-12 15:01 0.203255 -164.516916 227 35994ft 484kts
07-Jul-12 15:02 0.108291 -164.613227 227 35994ft 484kts
07-Jul-12 15:03 0.013476 -164.709390 227 35994ft 484kts
07-Jul-12 15:04 -0.081590 -164.805804 227 35994ft 484kts
07-Jul-12 15:05 -0.176025 -164.901582 227 35994ft 484kts
07-Jul-12 15:06 -0.270745 -164.997650 227 35993ft 484kts
07-Jul-12 15:07 -0.365891 -165.094154 227 35994ft 485kts
07-Jul-12 15:08 -0.460615 -165.190229 227 35994ft 486kts
07-Jul-12 15:09 -0.555754 -165.286734 227 35994ft 486kts
07-Jul-12 15:10 -0.651160 -165.383510 227 35994ft 486kts
07-Jul-12 15:11 -0.746040 -165.479760 227 35994ft 486kts
07-Jul-12 15:12 -0.841102 -165.576207 227 35994ft 486kts
07-Jul-12 15:13 -0.936233 -165.672717 227 35994ft 486kts
07-Jul-12 15:14 -1.031305 -165.769190 227 35994ft 486kts
07-Jul-12 15:15 -1.126395 -165.865680 227 35994ft 486kts
07-Jul-12 15:16 -1.221439 -165.962141 227 35994ft 486kts
07-Jul-12 15:17 -1.316157 -166.058289 227 35994ft 486kts
07-Jul-12 15:18 -1.395754 -166.139077 227 35994ft 486kts
07-Jul-12 15:19 -1.490541 -166.235314 227 35994ft 486kts
07-Jul-12 15:20 -1.585888 -166.332117 227 35994ft 486kts
07-Jul-12 15:21 -1.680566 -166.428257 227 35994ft 486kts
07-Jul-12 15:22 -1.775899 -166.525093 227 35994ft 486kts
07-Jul-12 15:23 -1.870965 -166.621645 227 35994ft 486kts
07-Jul-12 15:24 -1.965606 -166.717810 227 35994ft 485kts
07-Jul-12 15:25 -2.060868 -166.814603 227 35994ft 485kts
07-Jul-12 15:26 -2.155870 -166.911161 227 35994ft 485kts
07-Jul-12 15:27 -2.250850 -167.007730 227 35994ft 485kts
07-Jul-12 15:28 -2.345795 -167.104243 227 35994ft 485kts
07-Jul-12 15:29 -2.440767 -167.200840 227 35994ft 485kts
07-Jul-12 15:30 -2.535989 -167.297683 227 35994ft 485kts
07-Jul-12 15:31 -2.630947 -167.394301 227 35994ft 485kts
07-Jul-12 15:32 -2.726163 -167.491215 227 35994ft 485kts
07-Jul-12 15:33 -2.819924 -167.586627 227 35995ft 484kts
07-Jul-12 15:34 -2.915477 -167.683932 227 35994ft 483kts
07-Jul-12 15:35 -3.009604 -167.779772 227 35994ft 483kts
07-Jul-12 15:36 -3.104552 -167.876503 227 35994ft 483kts
07-Jul-12 15:37 -3.199228 -167.972989 227 35994ft 483kts
07-Jul-12 15:38 -3.293964 -168.069525 227 35994ft 483kts
07-Jul-12 15:39 -3.388309 -168.165738 227 35994ft 483kts
07-Jul-12 15:40 -3.481935 -168.261198 227 35994ft 483kts
07-Jul-12 15:41 -3.576831 -168.358021 227 35994ft 483kts
07-Jul-12 15:42 -3.670865 -168.453989 227 35994ft 483kts
07-Jul-12 15:43 -3.765107 -168.550172 227 35994ft 483kts
07-Jul-12 15:44 -3.859719 -168.646813 227 35994ft 482kts
07-Jul-12 15:45 -3.953241 -168.742313 227 35994ft 482kts
07-Jul-12 15:46 -4.048182 -168.839346 227 35994ft 482kts
07-Jul-12 15:47 -4.141766 -168.935012 227 35994ft 482kts
07-Jul-12 15:48 -4.235921 -169.031278 227 35994ft 482kts
07-Jul-12 15:49 -4.330429 -169.127989 227 35994ft 482kts
07-Jul-12 15:50 -4.424874 -169.224605 227 35994ft 482kts
07-Jul-12 15:51 -4.518398 -169.320372 227 35994ft 482kts
07-Jul-12 15:52 -4.613175 -169.417437 227 35994ft 482kts
07-Jul-12 15:53 -4.706685 -169.513233 227 35994ft 482kts
07-Jul-12 15:54 -4.800730 -169.609665 227 35994ft 482kts
07-Jul-12 15:55 -4.895058 -169.706348 227 35994ft 482kts
07-Jul-12 15:56 -4.973556 -169.786894 227 35994ft 482kts
07-Jul-12 15:57 -5.067835 -169.883668 227 35994ft 482kts
07-Jul-12 15:58 -5.161280 -169.979574 227 35994ft 482kts
07-Jul-12 15:59 -5.255525 -170.076418 227 35994ft 482kts
07-Jul-12 16:00 -5.349224 -170.172669 227 35994ft 482kts
07-Jul-12 16:01 -5.443385 -170.269501 227 35994ft 482kts
07-Jul-12 16:02 -5.535984 -170.364845 225 35995ft 474kts
07-Jul-12 16:03 -5.629327 -170.460682 226 35990ft 484kts
07-Jul-12 16:04 -5.723658 -170.558022 225 35987ft 479kts
07-Jul-12 16:05 -5.817356 -170.654441 225 35988ft 483kts
07-Jul-12 16:06 -5.910701 -170.750672 225 35987ft 481kts
07-Jul-12 16:07 -6.004650 -170.847562 225 35987ft 481kts
07-Jul-12 16:08 -6.097989 -170.943834 225 35987ft 481kts
07-Jul-12 16:09 -6.192156 -171.041090 225 35987ft 481kts
07-Jul-12 16:10 -6.285043 -171.136977 225 35987ft 481kts
07-Jul-12 16:11 -6.378893 -171.233995 225 35988ft 481kts
07-Jul-12 16:12 -6.472727 -171.331024 225 35988ft 481kts
07-Jul-12 16:13 -6.565907 -171.427404 225 35987ft 481kts
07-Jul-12 16:14 -6.659275 -171.524107 225 35987ft 481kts
07-Jul-12 16:15 -6.753078 -171.621209 225 35987ft 481kts
07-Jul-12 16:16 -6.846444 -171.718008 225 35988ft 480kts
07-Jul-12 16:17 -6.939176 -171.814173 225 35988ft 480kts
07-Jul-12 16:18 -7.032809 -171.911309 225 35989ft 480kts
07-Jul-12 16:19 -7.126264 -172.008398 225 35987ft 480kts
07-Jul-12 16:20 -7.218816 -172.104492 225 35990ft 477kts
07-Jul-12 16:21 -7.311410 -172.200791 225 35990ft 477kts
07-Jul-12 16:22 -7.403936 -172.297043 225 35989ft 477kts
07-Jul-12 16:23 -7.497011 -172.393906 225 35988ft 478kts
07-Jul-12 16:24 -7.589410 -172.490209 225 35984ft 477kts
07-Jul-12 16:25 -7.683477 -172.588189 225 35869ft 486kts
07-Jul-12 16:26 -7.777228 -172.686016 225 35870ft 484kts
07-Jul-12 16:27 -7.871244 -172.784136 225 35866ft 486kts
07-Jul-12 16:28 -7.965464 -172.882529 225 35862ft 486kts
07-Jul-12 16:29 -8.059147 -172.980512 225 35861ft 486kts
07-Jul-12 16:30 -8.153374 -173.078994 225 35861ft 486kts
07-Jul-12 16:31 -8.247709 -173.177786 225 35861ft 486kts
07-Jul-12 16:32 -8.341788 -173.276312 225 35860ft 486kts
07-Jul-12 16:33 -8.435523 -173.374568 225 35860ft 486kts
07-Jul-12 16:34 -8.529822 -173.473565 225 35859ft 486kts
07-Jul-12 16:35 -8.623774 -173.572113 225 35858ft 486kts
07-Jul-12 16:37 -8.811710 -173.769665 225 35858ft 486kts
07-Jul-12 16:39 -8.984238 -173.951351 226 35857ft 486kts
07-Jul-12 16:40 -9.077921 -174.049992 226 35856ft 486kts
07-Jul-12 16:41 -9.172051 -174.149326 226 35854ft 486kts
07-Jul-12 16:42 -9.265353 -174.247788 226 35853ft 486kts
07-Jul-12 16:43 -9.359148 -174.346868 226 35852ft 486kts
07-Jul-12 16:44 -9.453604 -174.446816 226 35851ft 486kts
07-Jul-12 16:45 -9.546802 -174.545341 226 35851ft 486kts
07-Jul-12 16:46 -9.641141 -174.645319 226 35850ft 486kts
07-Jul-12 16:47 -9.734859 -174.744618 226 35850ft 486kts
07-Jul-12 16:48 -9.828555 -174.844035 226 35850ft 486kts
07-Jul-12 16:49 -9.922125 -174.943478 226 35849ft 486kts
07-Jul-12 16:50 -10.015930 -175.043067 226 35849ft 486kts
07-Jul-12 16:51 -10.109113 -175.142262 226 35848ft 486kts
07-Jul-12 16:52 -10.202669 -175.241814 226 35848ft 486kts
07-Jul-12 16:53 -10.296631 -175.341976 226 35847ft 486kts
07-Jul-12 16:54 -10.389805 -175.441443 226 35847ft 486kts
07-Jul-12 16:55 -10.483970 -175.541874 226 35846ft 486kts
07-Jul-12 16:56 -10.577164 -175.641548 226 35846ft 486kts
07-Jul-12 16:57 -10.670842 -175.741676 226 35845ft 486kts
07-Jul-12 16:58 -10.764004 -175.841466 226 35845ft 486kts
07-Jul-12 16:59 -10.857240 -175.941437 226 35845ft 486kts
07-Jul-12 17:00 -10.950651 -176.041569 226 35844ft 486kts
07-Jul-12 17:01 -11.044340 -176.142262 226 35844ft 486kts
07-Jul-12 17:02 -11.137637 -176.242455 226 35867ft 489kts
07-Jul-12 17:03 -11.231291 -176.343278 226 35849ft 488kts
07-Jul-12 17:04 -11.323626 -176.442628 227 35987ft 476kts
07-Jul-12 17:05 -11.414806 -176.541111 226 35972ft 474kts
07-Jul-12 17:06 -11.506061 -176.639544 227 35987ft 476kts
07-Jul-12 17:07 -11.595756 -176.736388 227 35991ft 475kts
07-Jul-12 17:08 -11.686811 -176.834901 227 35990ft 475kts
07-Jul-12 17:09 -11.777454 -176.933053 227 35991ft 475kts
07-Jul-12 17:10 -11.868260 -177.031390 227 35992ft 474kts
07-Jul-12 17:11 -11.958632 -177.129512 227 35990ft 474kts
07-Jul-12 17:12 -12.049672 -177.228277 227 35991ft 474kts
07-Jul-12 17:13 -12.140121 -177.326631 227 35992ft 476kts
07-Jul-12 17:14 -12.231452 -177.426071 227 35993ft 480kts
07-Jul-12 17:15 -12.323444 -177.526210 228 35993ft 485kts
07-Jul-12 17:16 -12.416911 -177.628253 228 35994ft 493kts
07-Jul-12 17:17 -12.511810 -177.731762 228 35994ft 497kts
07-Jul-12 17:18 -12.590541 -177.817865 228 35994ft 498kts
07-Jul-12 17:20 -12.780698 -178.026020 228 35994ft 499kts
07-Jul-12 17:21 -12.875324 -178.129909 228 35994ft 499kts
07-Jul-12 17:22 -12.970380 -178.234166 228 35994ft 499kts
07-Jul-12 17:23 -13.065764 -178.339104 228 35994ft 500kts
07-Jul-12 17:24 -13.160806 -178.443692 228 35994ft 500kts
07-Jul-12 17:25 -13.255840 -178.548415 228 35994ft 500kts
07-Jul-12 17:26 -13.349534 -178.651876 229 35996ft 482kts
07-Jul-12 17:27 -13.440727 -178.752578 226 35988ft 489kts
07-Jul-12 17:28 -13.535621 -178.858087 226 35991ft 505kts
07-Jul-12 17:29 -13.631035 -178.963081 228 35995ft 501kts
07-Jul-12 17:30 -13.725943 -179.068442 228 35995ft 501kts
07-Jul-12 17:31 -13.820893 -179.173964 228 35995ft 501kts
07-Jul-12 17:32 -13.915752 -179.279828 226 35995ft 506kts
07-Jul-12 17:33 -14.010804 -179.385041 228 35996ft 501kts
07-Jul-12 17:34 -14.104280 -179.488552 228 35997ft 487kts
07-Jul-12 17:35 -14.197068 -179.592853 229 35995ft 473kts
07-Jul-12 17:36 -14.286988 -179.693409 229 35996ft 489kts
07-Jul-12 17:37 -14.380463 -179.797974 229 35991ft 478kts
07-Jul-12 17:38 -14.470843 -179.899358 229 35986ft 485kts
07-Jul-12 17:39 -14.560862 179.999769 229 35989ft 470kts
07-Jul-12 17:40 -14.648480 179.901267 229 35994ft 465kts
07-Jul-12 17:41 -14.736324 179.802488 229 35995ft 464kts
07-Jul-12 17:42 -14.823760 179.704071 230 35997ft 467kts
07-Jul-12 17:43 -14.912197 179.604231 230 36000ft 471kts
07-Jul-12 17:44 -15.002131 179.502821 230 36020ft 478kts
07-Jul-12 17:45 -15.091138 179.402090 231 36022ft 478kts
07-Jul-12 17:46 -15.181811 179.299359 230 36028ft 479kts
07-Jul-12 17:47 -15.271720 179.197533 231 37230ft 477kts
07-Jul-12 17:48 -15.361453 179.095528 231 38019ft 477kts
07-Jul-12 17:49 -15.451277 178.993550 231 38024ft 476kts
07-Jul-12 17:50 -15.540401 178.892011 231 38025ft 476kts
07-Jul-12 17:51 -15.629733 178.790121 231 38026ft 476kts
07-Jul-12 17:52 -15.719119 178.688179 231 38027ft 476kts
07-Jul-12 17:53 -15.808263 178.586138 231 38027ft 476kts
07-Jul-12 17:54 -15.897560 178.484045 231 38028ft 476kts
07-Jul-12 17:55 -15.986680 178.381798 231 38028ft 476kts
07-Jul-12 17:56 -16.075642 178.279583 231 38029ft 476kts
07-Jul-12 17:57 -16.164751 178.177256 232 38029ft 475kts
07-Jul-12 17:58 -16.253835 178.074545 232 38030ft 475kts
07-Jul-12 17:59 -16.342502 177.972436 232 38030ft 475kts
07-Jul-12 18:00 -16.431482 177.869609 232 38030ft 475kts
07-Jul-12 18:03 -16.682675 177.578645 232 38031ft 475kts
07-Jul-12 18:04 -16.771355 177.475731 233 38031ft 475kts
07-Jul-12 18:05 -16.859227 177.373507 233 38030ft 475kts
07-Jul-12 18:06 -16.948221 177.269678 233 38029ft 475kts
07-Jul-12 18:07 -17.036112 177.167327 233 38029ft 475kts
07-Jul-12 18:08 -17.124407 177.064031 233 38028ft 475kts
07-Jul-12 18:09 -17.213064 176.960339 233 38028ft 475kts
07-Jul-12 18:10 -17.301051 176.857209 233 38027ft 475kts
07-Jul-12 18:11 -17.389532 176.753171 233 38027ft 475kts
07-Jul-12 18:12 -17.477488 176.649954 233 38027ft 475kts
07-Jul-12 18:13 -17.565524 176.546154 233 38027ft 475kts
07-Jul-12 18:14 -17.653532 176.442396 233 38027ft 474kts
07-Jul-12 18:15 -17.741444 176.338555 233 38028ft 474kts
07-Jul-12 18:16 -17.829220 176.234522 233 38028ft 474kts
07-Jul-12 18:17 -17.917170 176.130483 233 38028ft 474kts
07-Jul-12 18:18 -18.004756 176.026384 233 38028ft 474kts
07-Jul-12 18:19 -18.091945 175.922740 233 38029ft 474kts
07-Jul-12 18:20 -18.179640 175.818334 233 38029ft 473kts
07-Jul-12 18:21 -18.266902 175.714061 233 38029ft 473kts
07-Jul-12 18:22 -18.354419 175.609684 233 38029ft 473kts
07-Jul-12 18:23 -18.441478 175.505362 233 38029ft 472kts
07-Jul-12 18:24 -18.528537 175.400988 233 38029ft 472kts
07-Jul-12 18:25 -18.615431 175.296699 233 38029ft 472kts
07-Jul-12 18:26 -18.701905 175.192500 234 38029ft 472kts
07-Jul-12 18:27 -18.788729 175.088070 233 38029ft 472kts
07-Jul-12 18:28 -18.875645 174.983050 234 38029ft 472kts
07-Jul-12 18:29 -18.962451 174.878050 233 38029ft 472kts
07-Jul-12 18:30 -19.049020 174.773312 234 38029ft 471kts
07-Jul-12 18:31 -19.134981 174.668849 234 38029ft 471kts
07-Jul-12 18:32 -19.221440 174.563953 234 38029ft 471kts
07-Jul-12 18:33 -19.307336 174.459278 234 38029ft 471kts
07-Jul-12 18:34 -19.393403 174.354189 234 38029ft 471kts
07-Jul-12 18:35 -19.479863 174.248737 234 38029ft 471kts
07-Jul-12 18:36 -19.565970 174.143175 234 38029ft 471kts
07-Jul-12 18:37 -19.651964 174.037895 234 38029ft 471kts
07-Jul-12 18:38 -19.737439 173.932874 235 38026ft 471kts
07-Jul-12 18:39 -19.823361 173.826924 235 38025ft 470kts
07-Jul-12 18:40 -19.908827 173.721810 235 38024ft 470kts
07-Jul-12 18:41 -19.980145 173.633586 235 38025ft 463kts
07-Jul-12 18:42 -20.077749 173.512969 234 38027ft 459kts
07-Jul-12 18:43 -20.145948 173.428002 232 38032ft 443kts
07-Jul-12 18:44 -20.225270 173.329575 229 38043ft 437kts
07-Jul-12 18:45 -20.305319 173.230454 229 38047ft 437kts
07-Jul-12 18:46 -20.384462 173.131794 228 38048ft 439kts
07-Jul-12 18:47 -20.463939 173.032507 228 38050ft 438kts
07-Jul-12 18:48 -20.544431 172.931877 225 38044ft 457kts
07-Jul-12 18:49 -20.628517 172.826678 225 38082ft 467kts
07-Jul-12 18:50 -20.713927 172.719609 225 39092ft 470kts
07-Jul-12 18:51 -20.799902 172.611601 225 39821ft 478kts
07-Jul-12 18:52 -20.886073 172.502879 225 40082ft 477kts
07-Jul-12 18:53 -20.972655 172.393884 225 40086ft 480kts
07-Jul-12 18:54 -21.058609 172.285072 225 40089ft 481kts
07-Jul-12 18:55 -21.145438 172.175118 225 40088ft 483kts
07-Jul-12 18:56 -21.232331 172.064879 226 40090ft 483kts
07-Jul-12 18:57 -21.317596 171.956216 225 40091ft 462kts
07-Jul-12 18:58 -21.398479 171.853495 226 40093ft 437kts
07-Jul-12 18:59 -21.474829 171.756051 229 40094ft 419kts
07-Jul-12 19:00 -21.550194 171.659723 234 40096ft 422kts
07-Jul-12 19:01 -21.628110 171.560229 239 40098ft 443kts
07-Jul-12 19:02 -21.708565 171.456389 239 40101ft 451kts
07-Jul-12 19:03 -21.788850 171.353138 239 40103ft 452kts
07-Jul-12 19:04 -21.869868 171.248804 239 40104ft 451kts
07-Jul-12 19:05 -21.950562 171.144421 239 40107ft 451kts
07-Jul-12 19:06 -22.030905 171.040730 239 40109ft 451kts
07-Jul-12 19:07 -22.111416 170.936285 240 40113ft 450kts
07-Jul-12 19:08 -22.191288 170.832355 240 40115ft 450kts
07-Jul-12 19:09 -22.271775 170.727937 240 40118ft 449kts
07-Jul-12 19:10 -22.350927 170.624551 240 40121ft 441kts
07-Jul-12 19:11 -22.430360 170.520896 240 40123ft 449kts
07-Jul-12 19:12 -22.508687 170.418298 239 40144ft 429kts
07-Jul-12 19:13 -22.582997 170.320761 239 40150ft 423kts
07-Jul-12 19:14 -22.657277 170.223374 238 40154ft 413kts
07-Jul-12 19:15 -22.730384 170.127162 239 40157ft 415kts
07-Jul-12 19:16 -22.804019 170.029837 239 40158ft 416kts
07-Jul-12 19:17 -22.877679 169.932753 238 40159ft 414kts
07-Jul-12 19:18 -22.951465 169.835043 239 40159ft 417kts
07-Jul-12 19:19 -23.025016 169.737264 239 40160ft 416kts
07-Jul-12 19:20 -23.098598 169.639816 239 40161ft 419kts
07-Jul-12 19:21 -23.172056 169.541888 239 40162ft 418kts
07-Jul-12 19:22 -23.232969 169.460445 239 40161ft 415kts
07-Jul-12 19:23 -23.307044 169.361817 240 40162ft 419kts
07-Jul-12 19:25 -23.453990 169.164579 240 40162ft 421kts
07-Jul-12 19:26 -23.527693 169.065854 240 40138ft 419kts
07-Jul-12 19:27 -23.601120 168.966860 240 40104ft 417kts
07-Jul-12 19:28 -23.674903 168.867143 240 40070ft 420kts
07-Jul-12 19:29 -23.748154 168.768379 239 40035ft 416kts
07-Jul-12 19:30 -23.821274 168.669211 240 40003ft 419kts
07-Jul-12 19:31 -23.894289 168.570079 240 39999ft 418kts
07-Jul-12 19:32 -23.967068 168.471310 240 39996ft 419kts
07-Jul-12 19:33 -24.040252 168.371363 240 39995ft 417kts
07-Jul-12 19:34 -24.112790 168.272371 239 39993ft 412kts
07-Jul-12 19:35 -24.185335 168.173255 240 39994ft 415kts
07-Jul-12 19:36 -24.257373 168.074276 239 39994ft 414kts
07-Jul-12 19:37 -24.329996 167.974701 239 39994ft 414kts
07-Jul-12 19:38 -24.401443 167.876351 239 39994ft 411kts
07-Jul-12 19:39 -24.472522 167.778096 239 39994ft 409kts
07-Jul-12 19:40 -24.543970 167.679568 238 39994ft 409kts
07-Jul-12 19:41 -24.613908 167.582696 238 39996ft 407kts
07-Jul-12 19:42 -24.684846 167.484033 238 39994ft 406kts
07-Jul-12 19:43 -24.754986 167.386753 237 39994ft 404kts
07-Jul-12 19:44 -24.824477 167.289891 236 39994ft 402kts
07-Jul-12 19:45 -24.893878 167.192753 236 39994ft 401kts
07-Jul-12 19:46 -24.963516 167.095681 236 40018ft 401kts
07-Jul-12 19:47 -25.032485 166.998899 235 40048ft 400kts
07-Jul-12 19:48 -25.100983 166.902442 234 40077ft 400kts
07-Jul-12 19:49 -25.170164 166.805333 234 40108ft 399kts
07-Jul-12 19:50 -25.238876 166.708367 233 40128ft 400kts
07-Jul-12 19:51 -25.307307 166.611503 233 40133ft 399kts
07-Jul-12 19:52 -25.376475 166.513745 232 40133ft 401kts
07-Jul-12 19:53 -25.445102 166.416331 231 40132ft 403kts
07-Jul-12 19:54 -25.514418 166.317442 230 40130ft 406kts
07-Jul-12 19:55 -25.584312 166.218202 229 40126ft 409kts
07-Jul-12 19:56 -25.653354 166.119720 232 40125ft 399kts
07-Jul-12 19:57 -25.721444 166.021934 233 40122ft 398kts
07-Jul-12 19:58 -25.789742 165.924529 236 40118ft 399kts
07-Jul-12 19:59 -25.858178 165.826034 240 40117ft 407kts
07-Jul-12 20:00 -25.928707 165.724183 243 40113ft 424kts
07-Jul-12 20:01 -26.001137 165.619815 243 40113ft 425kts
07-Jul-12 20:03 -26.145611 165.410092 243 40107ft 425kts
07-Jul-12 20:04 -26.205691 165.323210 243 40105ft 424kts
07-Jul-12 20:05 -26.277438 165.218577 243 40101ft 424kts
07-Jul-12 20:06 -26.356155 165.102861 235 40146ft 394kts
07-Jul-12 20:07 -26.413445 165.020888 244 40102ft 409kts
07-Jul-12 20:08 -26.483434 164.916812 232 40397ft 419kts
07-Jul-12 20:09 -26.555591 164.810995 232 40364ft 439kts
07-Jul-12 20:10 -26.631583 164.699467 232 40408ft 461kts
07-Jul-12 20:11 -26.711200 164.581654 232 40411ft 481kts
07-Jul-12 20:12 -26.791840 164.462508 232 40409ft 479kts
07-Jul-12 20:13 -26.872239 164.343091 232 40408ft 479kts
07-Jul-12 20:14 -26.952504 164.223304 232 40408ft 479kts
07-Jul-12 20:15 -27.032889 164.103785 232 40408ft 479kts
07-Jul-12 20:16 -27.112872 163.983822 233 40408ft 479kts
07-Jul-12 20:17 -27.193031 163.863792 232 40408ft 479kts
07-Jul-12 20:18 -27.272694 163.743861 233 40408ft 479kts
07-Jul-12 20:19 -27.352640 163.622920 233 40408ft 479kts
07-Jul-12 20:20 -27.432523 163.502533 233 40408ft 479kts
07-Jul-12 20:21 -27.511987 163.381707 233 40408ft 479kts
07-Jul-12 20:22 -27.591579 163.260898 233 40408ft 479kts
07-Jul-12 20:23 -27.670686 163.140154 233 40387ft 479kts
07-Jul-12 20:24 -27.750072 163.018390 233 40400ft 479kts
07-Jul-12 20:25 -27.828891 162.897969 233 40284ft 478kts
07-Jul-12 20:26 -27.908120 162.775814 233 40399ft 479kts
07-Jul-12 20:27 -27.988195 162.652543 233 40234ft 492kts
07-Jul-12 20:28 -28.067499 162.529793 233 40265ft 480kts
07-Jul-12 20:29 -28.149072 162.404848 230 40110ft 497kts
07-Jul-12 20:30 -28.223378 162.289295 240 40035ft 411kts
07-Jul-12 20:31 -28.289167 162.185548 241 40035ft 415kts
07-Jul-12 20:32 -28.357103 162.079861 245 40031ft 414kts
07-Jul-12 20:33 -28.424254 161.973896 245 40029ft 413kts
07-Jul-12 20:34 -28.490373 161.869177 241 40037ft 393kts
07-Jul-12 20:35 -28.553670 161.769433 235 40058ft 388kts
07-Jul-12 20:36 -28.617460 161.669247 232 40075ft 393kts
07-Jul-12 20:37 -28.681245 161.568274 233 40078ft 390kts
07-Jul-12 20:38 -28.744973 161.467129 232 40079ft 392kts
07-Jul-12 20:39 -28.809356 161.365065 232 40086ft 394kts
07-Jul-12 20:40 -28.873027 161.263363 232 40087ft 393kts
07-Jul-12 20:43 -29.055711 160.970816 230 40099ft 403kts
07-Jul-12 20:44 -29.121488 160.864737 229 40105ft 405kts
07-Jul-12 20:45 -29.186846 160.759766 229 40110ft 408kts
07-Jul-12 20:46 -29.252643 160.653159 229 40112ft 408kts
07-Jul-12 20:47 -29.318908 160.545537 228 40115ft 412kts
07-Jul-12 20:48 -29.386351 160.436471 228 40130ft 417kts
07-Jul-12 20:49 -29.452317 160.328375 228 40108ft 418kts
07-Jul-12 20:50 -29.520488 160.217691 232 40271ft 433kts
07-Jul-12 20:51 -29.591957 160.100111 229 40255ft 456kts
07-Jul-12 20:52 -29.667005 159.976927 235 40274ft 480kts
07-Jul-12 20:53 -29.743173 159.851411 235 40275ft 485kts
07-Jul-12 20:54 -29.819968 159.724145 235 40275ft 479kts
07-Jul-12 20:55 -29.895967 159.597899 234 40276ft 478kts
07-Jul-12 20:56 -29.972069 159.471620 235 40276ft 478kts
07-Jul-12 20:57 -30.047999 159.344501 235 40276ft 478kts
07-Jul-12 20:58 -30.124095 159.217507 235 40276ft 478kts
07-Jul-12 20:59 -30.199358 159.090883 235 40276ft 478kts
07-Jul-12 21:00 -30.274701 158.963752 234 40276ft 478kts
07-Jul-12 21:01 -30.350722 158.835611 235 40276ft 478kts
07-Jul-12 21:02 -30.425978 158.707607 235 40276ft 478kts
07-Jul-12 21:03 -30.500978 158.580463 235 40276ft 478kts
07-Jul-12 21:04 -30.575864 158.452454 235 40276ft 478kts
07-Jul-12 21:05 -30.650572 158.324370 235 40276ft 478kts
07-Jul-12 21:06 -30.725658 158.195776 235 40275ft 478kts
07-Jul-12 21:07 -30.800139 158.067024 235 40478ft 480kts
07-Jul-12 21:08 -30.875044 157.937995 235 41597ft 480kts
07-Jul-12 21:09 -30.949789 157.808141 235 42172ft 485kts
07-Jul-12 21:10 -31.024584 157.677843 235 42160ft 482kts
07-Jul-12 21:11 -31.099032 157.548214 236 42148ft 481kts
07-Jul-12 21:12 -31.173531 157.417297 236 42143ft 481kts
07-Jul-12 21:13 -31.248014 157.286880 236 42142ft 481kts
07-Jul-12 21:14 -31.321838 157.156455 236 42141ft 481kts
07-Jul-12 21:15 -31.395839 157.025435 235 42140ft 481kts
07-Jul-12 21:16 -31.470115 156.893875 236 42139ft 481kts
07-Jul-12 21:17 -31.543426 156.762863 236 42138ft 481kts
07-Jul-12 21:18 -31.617481 156.631026 236 42137ft 481kts
07-Jul-12 21:19 -31.678997 156.520558 236 42135ft 484kts
07-Jul-12 21:20 -31.753579 156.386018 235 42132ft 496kts
07-Jul-12 21:21 -31.829273 156.249853 234 42129ft 488kts
07-Jul-12 21:22 -31.900339 156.120868 233 42124ft 456kts
07-Jul-12 21:23 -31.968173 155.998407 236 42118ft 434kts
07-Jul-12 21:24 -32.033978 155.878237 239 42115ft 438kts
07-Jul-12 21:25 -32.099824 155.757218 239 42112ft 437kts
07-Jul-12 21:26 -32.166050 155.636355 239 42109ft 437kts
07-Jul-12 21:27 -32.231811 155.515082 240 42105ft 437kts
07-Jul-12 21:28 -32.297736 155.393182 239 42101ft 437kts
07-Jul-12 21:29 -32.363364 155.272161 240 42098ft 437kts
07-Jul-12 21:30 -32.429020 155.149835 240 42097ft 438kts
07-Jul-12 21:31 -32.494414 155.028221 239 42093ft 438kts
07-Jul-12 21:32 -32.560302 154.905131 239 42101ft 440kts
07-Jul-12 21:33 -32.625740 154.781983 239 42103ft 440kts
07-Jul-12 21:34 -32.691234 154.659318 239 42105ft 440kts
07-Jul-12 21:35 -32.756798 154.535386 239 42109ft 440kts
07-Jul-12 21:36 -32.821673 154.412097 240 42109ft 440kts
07-Jul-12 21:37 -32.887278 154.288184 240 42116ft 440kts
07-Jul-12 21:38 -32.952010 154.164498 240 42121ft 440kts
07-Jul-12 21:39 -33.017519 154.039316 239 42126ft 442kts
07-Jul-12 21:40 -33.082445 153.915087 239 42131ft 443kts
07-Jul-12 21:41 -33.147522 153.789483 240 42136ft 442kts
07-Jul-12 21:42 -33.212632 153.664327 239 42141ft 442kts
07-Jul-12 21:43 -33.277394 153.538874 240 42145ft 442kts
07-Jul-12 21:44 -33.341783 153.413434 240 42150ft 443kts
07-Jul-12 21:45 -33.406715 153.287735 240 42151ft 443kts
07-Jul-12 21:46 -33.471063 153.161833 240 39240ft 440kts
07-Jul-12 21:47 -33.534245 153.037991 239 36726ft 419kts
07-Jul-12 21:48 -33.593767 152.921869 239 34479ft 398kts
07-Jul-12 21:49 -33.651140 152.808899 238 32155ft 408kts
07-Jul-12 21:50 -33.701833 152.709015 238 30184ft 396kts
07-Jul-12 21:51 -33.758855 152.597780 239 28083ft 377kts
07-Jul-12 21:52 -33.812395 152.492364 239 26066ft 361kts
07-Jul-12 21:53 -33.864114 152.390938 238 24123ft 347kts
07-Jul-12 21:54 -33.914731 152.292460 239 22039ft 340kts
07-Jul-12 21:55 -33.964367 152.197262 238 20103ft 329kts
07-Jul-12 21:56 -34.011947 152.104906 242 18196ft 319kts
07-Jul-12 21:57 -34.035517 151.996688 259 15991ft 340kts
07-Jul-12 21:59 -34.069833 151.796140 258 12065ft 329kts
07-Jul-12 22:00 -34.088523 151.688026 259 10257ft 310kts
07-Jul-12 22:01 -34.105883 151.591416 258 8867ft 289kts
07-Jul-12 22:02 -34.122513 151.497454 258 7331ft 276kts
07-Jul-12 22:03 -34.138352 151.409499 258 6006ft 256kts
07-Jul-12 22:04 -34.138702 151.332178 312 4874ft 220kts
07-Jul-12 22:05 -34.102504 151.292722 328 4313ft 155kts
07-Jul-12 22:06 -34.064328 151.279300 336 3094ft 158kts
07-Jul-12 22:07 -34.035839 151.242269 309 2036ft 151kts
07-Jul-12 22:08 -34.005494 151.203462 323 1166ft 164kts
07-Jul-12 22:09 -33.965781 151.180810 354 113ft 160kts
07-Jul-12 22:10 -33.939736 151.174046 288 33ft 7kts
07-Jul-12 22:11 -33.939943 151.171109 255 33ft 14kts
07-Jul-12 22:12 -33.940343 151.168074 314 33ft 9kts
07-Jul-12 22:13 -33.939538 151.168624 76 33ft 0kts
07-Jul-12 22:14 -33.939538 151.168625 76 33ft 0kts
07-Jul-12 22:15 -33.939538 151.168627 76 33ft 0kts
07-Jul-12 22:16 -33.939537 151.168628 76 33ft 0kts
07-Jul-12 22:17 -33.939537 151.168629 76 33ft 0kts
07-Jul-12 22:18 -33.939537 151.168629 76 33ft 0kts

Navigation Log

Ident Type
Flight plan parsing failed, navigation log unavailable